createdAt,value
2018-07-08T00:00:10.146Z,0.00
2018-07-08T00:01:10.178Z,0.00
2018-07-08T00:02:10.202Z,0.00
2018-07-08T00:03:10.221Z,0.00
2018-07-08T00:04:10.246Z,0.00
2018-07-08T00:05:10.265Z,0.00
2018-07-08T00:06:10.293Z,0.00
2018-07-08T00:07:10.322Z,0.00
2018-07-08T00:08:10.343Z,0.00
2018-07-08T00:09:10.364Z,0.00
2018-07-08T00:10:10.388Z,0.00
2018-07-08T00:11:10.415Z,0.00
2018-07-08T00:12:10.442Z,0.00
2018-07-08T00:13:10.470Z,0.00
2018-07-08T00:14:10.492Z,0.00
2018-07-08T00:15:10.512Z,0.00
2018-07-08T00:16:10.537Z,0.00
2018-07-08T00:17:10.559Z,0.00
2018-07-08T00:18:10.585Z,0.00
2018-07-08T00:19:10.607Z,0.00
2018-07-08T00:20:10.632Z,0.00
2018-07-08T00:21:10.657Z,0.00
2018-07-08T00:22:10.680Z,0.00
2018-07-08T00:23:10.710Z,0.00
2018-07-08T00:24:10.729Z,0.00
2018-07-08T00:25:10.752Z,0.00
2018-07-08T00:26:10.780Z,0.00
2018-07-08T00:27:10.805Z,0.00
2018-07-08T00:28:10.827Z,0.00
2018-07-08T00:29:10.851Z,0.00
2018-07-08T00:30:10.881Z,0.00
2018-07-08T00:31:10.896Z,0.00
2018-07-08T00:32:10.919Z,0.00
2018-07-08T00:33:10.949Z,0.00
2018-07-08T00:34:10.975Z,0.00
2018-07-08T00:35:10.994Z,0.00
2018-07-08T00:36:11.018Z,0.00
2018-07-08T00:37:11.040Z,0.00
2018-07-08T00:38:11.067Z,0.00
2018-07-08T00:39:11.094Z,0.00
2018-07-08T00:40:11.116Z,0.00
2018-07-08T00:41:11.139Z,0.00
2018-07-08T00:42:11.165Z,0.00
2018-07-08T00:43:11.192Z,0.00
2018-07-08T00:44:11.215Z,0.00
2018-07-08T00:45:11.238Z,0.00
2018-07-08T00:46:11.262Z,0.00
2018-07-08T00:47:11.281Z,0.00
2018-07-08T00:48:11.305Z,0.00
2018-07-08T00:49:11.336Z,0.00
2018-07-08T00:50:11.359Z,0.00
2018-07-08T00:51:11.381Z,0.00
2018-07-08T00:52:11.404Z,0.00
2018-07-08T00:53:11.426Z,0.00
2018-07-08T00:54:11.450Z,0.00
2018-07-08T00:55:11.479Z,0.00
2018-07-08T00:56:11.505Z,0.00
2018-07-08T00:57:11.521Z,0.00
2018-07-08T00:58:11.548Z,0.00
2018-07-08T00:59:11.576Z,0.00
2018-07-08T01:00:11.599Z,0.00
2018-07-08T01:01:11.624Z,0.00
2018-07-08T01:02:11.651Z,0.00
2018-07-08T01:03:11.669Z,0.00
2018-07-08T01:04:11.699Z,0.00
2018-07-08T01:05:11.717Z,0.00
2018-07-08T01:06:11.746Z,0.00
2018-07-08T01:07:11.762Z,0.00
2018-07-08T01:08:11.786Z,0.00
2018-07-08T01:09:11.817Z,0.00
2018-07-08T01:10:11.837Z,0.00
2018-07-08T01:11:11.871Z,0.00
2018-07-08T01:12:11.889Z,0.00
2018-07-08T01:13:11.910Z,0.00
2018-07-08T01:14:11.937Z,0.00
2018-07-08T01:15:11.963Z,0.00
2018-07-08T01:16:11.985Z,0.00
2018-07-08T01:17:12.008Z,0.00
2018-07-08T01:18:12.033Z,0.00
2018-07-08T01:19:12.054Z,0.00
2018-07-08T01:20:12.076Z,0.00
2018-07-08T01:21:12.106Z,0.00
2018-07-08T01:22:12.135Z,0.00
2018-07-08T01:23:12.151Z,0.00
2018-07-08T01:24:12.176Z,0.00
2018-07-08T01:25:12.196Z,0.00
2018-07-08T01:26:12.222Z,0.00
2018-07-08T01:27:12.252Z,0.00
2018-07-08T01:28:12.272Z,0.00
2018-07-08T01:29:12.296Z,0.00
2018-07-08T01:30:12.318Z,0.00
2018-07-08T01:31:12.349Z,0.00
2018-07-08T01:32:12.368Z,0.00
2018-07-08T01:33:12.396Z,0.00
2018-07-08T01:34:12.419Z,0.00
2018-07-08T01:35:12.441Z,0.00
2018-07-08T01:36:12.464Z,0.00
2018-07-08T01:37:12.489Z,0.00
2018-07-08T01:38:12.512Z,0.00
2018-07-08T01:39:12.538Z,0.00
2018-07-08T01:40:12.560Z,0.00
2018-07-08T01:41:12.583Z,0.00
2018-07-08T01:42:12.607Z,0.00
2018-07-08T01:43:12.636Z,0.00
2018-07-08T01:44:12.663Z,0.00
2018-07-08T01:45:12.683Z,0.00
2018-07-08T01:46:12.705Z,0.00
2018-07-08T01:47:12.728Z,0.00
2018-07-08T01:48:12.753Z,0.00
2018-07-08T01:49:12.773Z,0.00
2018-07-08T01:50:12.798Z,0.00
2018-07-08T01:51:12.833Z,0.00
2018-07-08T01:52:12.851Z,0.00
2018-07-08T01:53:12.872Z,0.00
2018-07-08T01:54:12.903Z,0.00
2018-07-08T01:55:12.919Z,0.00
2018-07-08T01:56:12.949Z,0.00
2018-07-08T01:57:12.969Z,0.00
2018-07-08T01:58:12.993Z,0.00
2018-07-08T01:59:13.014Z,0.00
2018-07-08T02:00:13.037Z,0.00
2018-07-08T02:01:13.066Z,0.00
2018-07-08T02:02:13.089Z,0.00
2018-07-08T02:03:13.110Z,0.00
2018-07-08T02:04:13.134Z,0.00
2018-07-08T02:05:13.160Z,0.00
2018-07-08T02:06:13.183Z,0.00
2018-07-08T02:07:13.210Z,0.00
2018-07-08T02:08:13.234Z,0.00
2018-07-08T02:09:13.253Z,0.00
2018-07-08T02:10:13.278Z,0.00
2018-07-08T02:11:13.310Z,0.00
2018-07-08T02:12:13.328Z,0.00
2018-07-08T02:13:13.356Z,0.00
2018-07-08T02:14:13.380Z,0.00
2018-07-08T02:15:13.401Z,0.00
2018-07-08T02:16:13.423Z,0.00
2018-07-08T02:17:13.452Z,0.00
2018-07-08T02:18:13.478Z,0.00
2018-07-08T02:19:13.496Z,0.00
2018-07-08T02:20:13.520Z,0.00
2018-07-08T02:21:13.542Z,0.00
2018-07-08T02:22:13.566Z,0.00
2018-07-08T02:23:13.594Z,0.00
2018-07-08T02:24:13.617Z,0.00
2018-07-08T02:25:13.638Z,0.00
2018-07-08T02:26:13.664Z,0.00
2018-07-08T02:27:13.692Z,0.00
2018-07-08T02:28:13.718Z,0.00
2018-07-08T02:29:13.738Z,0.00
2018-07-08T02:30:13.768Z,0.00
2018-07-08T02:31:13.782Z,0.00
2018-07-08T02:32:13.805Z,0.00
2018-07-08T02:33:13.832Z,0.00
2018-07-08T02:34:13.858Z,0.00
2018-07-08T02:35:13.880Z,0.00
2018-07-08T02:36:13.902Z,0.00
2018-07-08T02:37:13.928Z,0.00
2018-07-08T02:38:13.952Z,0.00
2018-07-08T02:39:13.982Z,0.00
2018-07-08T02:40:14.005Z,0.00
2018-07-08T02:41:14.023Z,0.00
2018-07-08T02:42:14.046Z,0.00
2018-07-08T02:43:14.075Z,0.00
2018-07-08T02:44:14.098Z,0.00
2018-07-08T02:45:14.125Z,0.00
2018-07-08T02:46:14.151Z,0.00
2018-07-08T02:47:14.168Z,0.00
2018-07-08T02:48:14.196Z,0.00
2018-07-08T02:49:14.218Z,0.00
2018-07-08T02:50:14.242Z,0.00
2018-07-08T02:51:14.262Z,0.00
2018-07-08T02:52:14.284Z,0.00
2018-07-08T02:53:14.311Z,0.00
2018-07-08T02:54:14.334Z,0.00
2018-07-08T02:55:14.364Z,0.00
2018-07-08T02:56:14.391Z,0.00
2018-07-08T02:57:14.405Z,0.00
2018-07-08T02:58:14.430Z,0.00
2018-07-08T02:59:14.458Z,0.00
2018-07-08T03:00:14.481Z,0.00
2018-07-08T03:01:14.508Z,0.00
2018-07-08T03:02:14.534Z,0.00
2018-07-08T03:03:14.553Z,0.00
2018-07-08T03:04:14.574Z,0.00
2018-07-08T03:05:14.603Z,0.00
2018-07-08T03:06:14.627Z,0.00
2018-07-08T03:07:14.648Z,0.00
2018-07-08T03:08:14.673Z,0.00
2018-07-08T03:09:14.694Z,0.00
2018-07-08T03:10:14.717Z,0.00
2018-07-08T03:11:14.747Z,0.00
2018-07-08T03:12:14.769Z,0.00
2018-07-08T03:13:14.798Z,0.00
2018-07-08T03:14:14.815Z,0.00
2018-07-08T03:15:14.844Z,0.00
2018-07-08T03:16:14.870Z,0.00
2018-07-08T03:17:14.890Z,0.00
2018-07-08T03:18:14.912Z,0.00
2018-07-08T03:19:14.941Z,0.00
2018-07-08T03:20:14.958Z,0.00
2018-07-08T03:21:14.984Z,0.00
2018-07-08T03:22:15.010Z,0.00
2018-07-08T03:23:15.033Z,5.63
2018-07-08T03:24:15.054Z,5.63
2018-07-08T03:25:15.079Z,5.63
2018-07-08T03:26:15.102Z,5.63
2018-07-08T03:27:15.174Z,5.63
2018-07-08T03:28:15.157Z,5.63
2018-07-08T03:29:15.171Z,5.63
2018-07-08T03:30:15.197Z,5.63
2018-07-08T03:31:15.225Z,5.63
2018-07-08T03:32:15.247Z,5.63
2018-07-08T03:33:15.273Z,11.25
2018-07-08T03:34:15.297Z,11.25
2018-07-08T03:35:15.317Z,22.50
2018-07-08T03:36:15.342Z,16.88
2018-07-08T03:37:15.369Z,16.88
2018-07-08T03:38:15.394Z,16.88
2018-07-08T03:39:15.414Z,22.50
2018-07-08T03:40:15.437Z,22.50
2018-07-08T03:41:15.460Z,28.13
2018-07-08T03:42:15.484Z,28.13
2018-07-08T03:43:15.513Z,56.25
2018-07-08T03:44:15.534Z,28.13
2018-07-08T03:45:15.557Z,39.38
2018-07-08T03:46:15.583Z,39.38
2018-07-08T03:47:15.608Z,45.00
2018-07-08T03:48:15.635Z,45.00
2018-07-08T03:49:15.655Z,67.50
2018-07-08T03:50:15.681Z,90.00
2018-07-08T03:51:15.700Z,56.25
2018-07-08T03:52:15.723Z,73.13
2018-07-08T03:53:15.754Z,61.88
2018-07-08T03:54:15.778Z,56.25
2018-07-08T03:55:15.798Z,61.88
2018-07-08T03:56:15.822Z,67.50
2018-07-08T03:57:15.845Z,112.50
2018-07-08T03:58:15.879Z,73.13
2018-07-08T03:59:15.897Z,67.50
2018-07-08T04:00:15.921Z,106.88
2018-07-08T04:01:15.944Z,90.00
2018-07-08T04:02:15.970Z,112.50
2018-07-08T04:03:15.997Z,106.88
2018-07-08T04:04:16.021Z,112.50
2018-07-08T04:05:16.046Z,106.88
2018-07-08T04:06:16.070Z,163.13
2018-07-08T04:07:16.089Z,180.00
2018-07-08T04:08:16.112Z,185.63
2018-07-08T04:09:16.142Z,202.50
2018-07-08T04:10:16.167Z,236.25
2018-07-08T04:11:16.188Z,225.00
2018-07-08T04:12:16.213Z,236.25
2018-07-08T04:13:16.239Z,157.50
2018-07-08T04:14:16.266Z,101.25
2018-07-08T04:15:16.335Z,230.63
2018-07-08T04:16:16.318Z,258.75
2018-07-08T04:17:16.338Z,247.50
2018-07-08T04:18:16.364Z,275.63
2018-07-08T04:19:16.394Z,230.63
2018-07-08T04:20:16.418Z,281.25
2018-07-08T04:21:16.447Z,292.50
2018-07-08T04:22:16.470Z,303.75
2018-07-08T04:23:16.494Z,303.75
2018-07-08T04:24:16.519Z,303.75
2018-07-08T04:25:16.551Z,303.75
2018-07-08T04:26:16.577Z,326.25
2018-07-08T04:27:16.598Z,343.13
2018-07-08T04:28:16.625Z,337.50
2018-07-08T04:29:16.649Z,354.38
2018-07-08T04:30:16.728Z,354.38
2018-07-08T04:31:16.706Z,371.25
2018-07-08T04:32:16.733Z,343.13
2018-07-08T04:33:16.758Z,303.75
2018-07-08T04:34:16.786Z,399.38
2018-07-08T04:35:16.817Z,399.38
2018-07-08T04:36:16.844Z,399.38
2018-07-08T04:37:16.869Z,399.38
2018-07-08T04:38:16.913Z,405.00
2018-07-08T04:39:16.921Z,421.88
2018-07-08T04:40:16.948Z,421.88
2018-07-08T04:41:16.980Z,427.50
2018-07-08T04:42:17.009Z,421.88
2018-07-08T04:43:17.033Z,421.88
2018-07-08T04:44:17.060Z,427.50
2018-07-08T04:45:17.091Z,433.13
2018-07-08T04:46:17.120Z,450.00
2018-07-08T04:47:17.153Z,438.75
2018-07-08T04:48:17.179Z,450.00
2018-07-08T04:49:17.217Z,455.63
2018-07-08T04:50:17.238Z,466.88
2018-07-08T04:51:17.267Z,489.38
2018-07-08T04:52:17.292Z,517.50
2018-07-08T04:53:17.324Z,534.38
2018-07-08T04:54:17.353Z,556.88
2018-07-08T04:55:17.394Z,596.25
2018-07-08T04:56:17.407Z,618.75
2018-07-08T04:57:17.439Z,630.00
2018-07-08T04:58:17.468Z,613.13
2018-07-08T04:59:17.494Z,343.13
2018-07-08T05:00:17.523Z,444.38
2018-07-08T05:01:17.560Z,309.38
2018-07-08T05:02:17.588Z,185.63
2018-07-08T05:03:17.618Z,309.38
2018-07-08T05:04:17.647Z,275.63
2018-07-08T05:05:17.672Z,562.50
2018-07-08T05:06:17.703Z,568.13
2018-07-08T05:07:17.735Z,540.00
2018-07-08T05:08:17.764Z,320.63
2018-07-08T05:09:17.798Z,264.38
2018-07-08T05:10:17.830Z,275.63
2018-07-08T05:11:17.853Z,281.25
2018-07-08T05:12:17.882Z,585.00
2018-07-08T05:13:17.915Z,590.63
2018-07-08T05:14:17.944Z,585.00
2018-07-08T05:15:17.970Z,590.63
2018-07-08T05:16:18.000Z,596.25
2018-07-08T05:17:18.029Z,590.63
2018-07-08T05:18:18.065Z,601.88
2018-07-08T05:19:18.089Z,607.50
2018-07-08T05:20:18.136Z,613.13
2018-07-08T05:21:18.148Z,618.75
2018-07-08T05:22:18.185Z,618.75
2018-07-08T05:23:18.216Z,613.13
2018-07-08T05:24:18.243Z,624.38
2018-07-08T05:25:18.274Z,618.75
2018-07-08T05:26:18.301Z,511.88
2018-07-08T05:27:18.335Z,680.63
2018-07-08T05:28:18.368Z,697.50
2018-07-08T05:29:18.396Z,613.13
2018-07-08T05:30:18.424Z,540.00
2018-07-08T05:31:18.458Z,472.50
2018-07-08T05:32:18.491Z,180.00
2018-07-08T05:33:18.518Z,241.88
2018-07-08T05:34:18.556Z,213.75
2018-07-08T05:35:18.585Z,275.63
2018-07-08T05:36:18.611Z,371.25
2018-07-08T05:37:18.642Z,264.38
2018-07-08T05:38:18.677Z,331.88
2018-07-08T05:39:18.709Z,303.75
2018-07-08T05:40:18.736Z,292.50
2018-07-08T05:41:18.769Z,281.25
2018-07-08T05:42:18.793Z,275.63
2018-07-08T05:43:18.822Z,270.00
2018-07-08T05:44:18.857Z,270.00
2018-07-08T05:45:18.887Z,264.38
2018-07-08T05:46:18.912Z,270.00
2018-07-08T05:47:18.943Z,264.38
2018-07-08T05:48:18.970Z,264.38
2018-07-08T05:49:19.000Z,264.38
2018-07-08T05:50:19.118Z,281.25
2018-07-08T05:51:19.063Z,270.00
2018-07-08T05:52:19.089Z,270.00
2018-07-08T05:53:19.120Z,275.63
2018-07-08T05:54:19.154Z,275.63
2018-07-08T05:55:19.186Z,281.25
2018-07-08T05:56:19.213Z,281.25
2018-07-08T05:57:19.242Z,286.88
2018-07-08T05:58:19.264Z,292.50
2018-07-08T05:59:19.295Z,303.75
2018-07-08T06:00:19.324Z,315.00
2018-07-08T06:01:19.355Z,337.50
2018-07-08T06:02:19.387Z,562.50
2018-07-08T06:03:19.416Z,843.75
2018-07-08T06:04:19.449Z,1001.25
2018-07-08T06:05:19.476Z,1051.88
2018-07-08T06:06:19.502Z,1063.13
2018-07-08T06:07:19.546Z,1102.50
2018-07-08T06:08:19.565Z,1141.88
2018-07-08T06:09:19.592Z,1057.50
2018-07-08T06:10:19.618Z,1057.50
2018-07-08T06:11:19.651Z,1080.00
2018-07-08T06:12:19.678Z,961.88
2018-07-08T06:13:19.708Z,1085.63
2018-07-08T06:14:19.743Z,590.63
2018-07-08T06:15:19.781Z,1023.75
2018-07-08T06:16:19.799Z,1001.25
2018-07-08T06:17:19.832Z,776.25
2018-07-08T06:18:19.867Z,1040.63
2018-07-08T06:19:19.905Z,860.63
2018-07-08T06:20:19.923Z,939.38
2018-07-08T06:21:19.954Z,303.75
2018-07-08T06:22:19.981Z,967.50
2018-07-08T06:23:20.012Z,365.63
2018-07-08T06:24:20.047Z,253.13
2018-07-08T06:25:20.079Z,444.38
2018-07-08T06:26:20.122Z,1018.13
2018-07-08T06:27:20.137Z,461.25
2018-07-08T06:28:20.169Z,478.13
2018-07-08T06:29:20.197Z,213.75
2018-07-08T06:30:20.233Z,871.88
2018-07-08T06:31:20.262Z,720.00
2018-07-08T06:32:20.288Z,343.13
2018-07-08T06:33:20.318Z,270.00
2018-07-08T06:34:20.354Z,264.38
2018-07-08T06:35:20.384Z,258.75
2018-07-08T06:36:20.417Z,236.25
2018-07-08T06:37:20.447Z,230.63
2018-07-08T06:38:20.476Z,225.00
2018-07-08T06:39:20.507Z,196.88
2018-07-08T06:40:20.537Z,196.88
2018-07-08T06:41:20.567Z,213.75
2018-07-08T06:42:20.594Z,191.25
2018-07-08T06:43:20.624Z,202.50
2018-07-08T06:44:20.661Z,253.13
2018-07-08T06:45:20.685Z,219.38
2018-07-08T06:46:20.721Z,208.13
2018-07-08T06:47:20.752Z,185.63
2018-07-08T06:48:20.777Z,163.13
2018-07-08T06:49:20.805Z,191.25
2018-07-08T06:50:20.839Z,180.00
2018-07-08T06:51:20.869Z,174.38
2018-07-08T06:52:20.900Z,174.38
2018-07-08T06:53:20.929Z,174.38
2018-07-08T06:54:20.957Z,168.75
2018-07-08T06:55:20.980Z,168.75
2018-07-08T06:56:21.020Z,180.00
2018-07-08T06:57:21.043Z,168.75
2018-07-08T06:58:21.074Z,146.25
2018-07-08T06:59:21.104Z,180.00
2018-07-08T07:00:21.127Z,191.25
2018-07-08T07:01:21.154Z,180.00
2018-07-08T07:02:21.189Z,219.38
2018-07-08T07:03:21.218Z,225.00
2018-07-08T07:04:21.250Z,185.63
2018-07-08T07:05:21.270Z,180.00
2018-07-08T07:06:21.305Z,168.75
2018-07-08T07:07:21.333Z,168.75
2018-07-08T07:08:21.365Z,185.63
2018-07-08T07:09:21.387Z,202.50
2018-07-08T07:10:21.413Z,174.38
2018-07-08T07:11:21.443Z,174.38
2018-07-08T07:12:21.471Z,196.88
2018-07-08T07:13:21.507Z,185.63
2018-07-08T07:14:21.527Z,180.00
2018-07-08T07:15:21.556Z,174.38
2018-07-08T07:16:21.588Z,191.25
2018-07-08T07:17:21.629Z,180.00
2018-07-08T07:18:21.647Z,180.00
2018-07-08T07:19:21.672Z,174.38
2018-07-08T07:20:21.697Z,163.13
2018-07-08T07:21:21.724Z,180.00
2018-07-08T07:22:21.756Z,196.88
2018-07-08T07:23:21.784Z,191.25
2018-07-08T07:24:21.813Z,208.13
2018-07-08T07:25:21.843Z,191.25
2018-07-08T07:26:21.868Z,163.13
2018-07-08T07:27:21.894Z,180.00
2018-07-08T07:28:21.924Z,180.00
2018-07-08T07:29:21.958Z,202.50
2018-07-08T07:30:21.978Z,191.25
2018-07-08T07:31:22.009Z,174.38
2018-07-08T07:32:22.034Z,140.63
2018-07-08T07:33:22.062Z,174.38
2018-07-08T07:34:22.093Z,191.25
2018-07-08T07:35:22.122Z,185.63
2018-07-08T07:36:22.144Z,163.13
2018-07-08T07:37:22.209Z,163.13
2018-07-08T07:38:22.209Z,180.00
2018-07-08T07:39:22.233Z,191.25
2018-07-08T07:40:22.262Z,191.25
2018-07-08T07:41:22.286Z,185.63
2018-07-08T07:42:22.310Z,174.38
2018-07-08T07:43:22.338Z,157.50
2018-07-08T07:44:22.371Z,140.63
2018-07-08T07:45:22.416Z,157.50
2018-07-08T07:46:22.423Z,163.13
2018-07-08T07:47:22.454Z,163.13
2018-07-08T07:48:22.475Z,151.88
2018-07-08T07:49:22.508Z,146.25
2018-07-08T07:50:22.537Z,146.25
2018-07-08T07:51:22.591Z,140.63
2018-07-08T07:52:22.587Z,146.25
2018-07-08T07:53:22.620Z,140.63
2018-07-08T07:54:22.648Z,135.00
2018-07-08T07:55:22.676Z,123.75
2018-07-08T07:56:22.704Z,135.00
2018-07-08T07:57:22.731Z,135.00
2018-07-08T07:58:22.754Z,135.00
2018-07-08T07:59:22.786Z,151.88
2018-07-08T08:00:22.814Z,157.50
2018-07-08T08:01:22.839Z,163.13
2018-07-08T08:02:22.862Z,163.13
2018-07-08T08:03:22.891Z,157.50
2018-07-08T08:04:22.919Z,146.25
2018-07-08T08:05:22.947Z,146.25
2018-07-08T08:06:22.977Z,146.25
2018-07-08T08:07:23.005Z,140.63
2018-07-08T08:08:23.070Z,140.63
2018-07-08T08:09:23.059Z,135.00
2018-07-08T08:10:23.086Z,129.38
2018-07-08T08:11:23.113Z,123.75
2018-07-08T08:12:23.142Z,123.75
2018-07-08T08:13:23.163Z,118.13
2018-07-08T08:14:23.197Z,118.13
2018-07-08T08:15:23.224Z,118.13
2018-07-08T08:16:23.250Z,118.13
2018-07-08T08:17:23.281Z,118.13
2018-07-08T08:18:23.304Z,118.13
2018-07-08T08:19:23.333Z,112.50
2018-07-08T08:20:23.356Z,118.13
2018-07-08T08:21:23.385Z,123.75
2018-07-08T08:22:23.407Z,118.13
2018-07-08T08:23:23.433Z,118.13
2018-07-08T08:24:23.464Z,112.50
2018-07-08T08:25:23.496Z,106.88
2018-07-08T08:26:23.526Z,106.88
2018-07-08T08:27:23.542Z,101.25
2018-07-08T08:28:23.570Z,101.25
2018-07-08T08:29:23.598Z,101.25
2018-07-08T08:30:23.629Z,101.25
2018-07-08T08:31:23.659Z,101.25
2018-07-08T08:32:23.677Z,101.25
2018-07-08T08:33:23.704Z,95.63
2018-07-08T08:34:23.733Z,95.63
2018-07-08T08:35:23.761Z,95.63
2018-07-08T08:36:23.790Z,95.63
2018-07-08T08:37:23.816Z,95.63
2018-07-08T08:38:23.846Z,95.63
2018-07-08T08:39:23.866Z,90.00
2018-07-08T08:40:23.896Z,90.00
2018-07-08T08:41:23.922Z,90.00
2018-07-08T08:42:23.947Z,84.38
2018-07-08T08:43:23.974Z,90.00
2018-07-08T08:44:23.997Z,90.00
2018-07-08T08:45:24.024Z,90.00
2018-07-08T08:46:24.060Z,90.00
2018-07-08T08:47:24.084Z,90.00
2018-07-08T08:48:24.107Z,90.00
2018-07-08T08:49:24.133Z,90.00
2018-07-08T08:50:24.164Z,90.00
2018-07-08T08:51:24.193Z,90.00
2018-07-08T08:52:24.294Z,90.00
2018-07-08T08:53:24.245Z,90.00
2018-07-08T08:54:24.269Z,90.00
2018-07-08T08:55:24.294Z,90.00
2018-07-08T08:56:24.322Z,90.00
2018-07-08T08:57:24.348Z,90.00
2018-07-08T08:58:24.420Z,90.00
2018-07-08T08:59:24.398Z,90.00
2018-07-08T09:00:24.425Z,90.00
2018-07-08T09:01:24.453Z,90.00
2018-07-08T09:02:24.490Z,90.00
2018-07-08T09:03:24.511Z,90.00
2018-07-08T09:04:24.530Z,90.00
2018-07-08T09:05:24.569Z,84.38
2018-07-08T09:06:24.588Z,84.38
2018-07-08T09:07:24.615Z,84.38
2018-07-08T09:08:24.644Z,84.38
2018-07-08T09:09:24.695Z,84.38
2018-07-08T09:10:24.696Z,84.38
2018-07-08T09:11:24.719Z,84.38
2018-07-08T09:12:24.746Z,84.38
2018-07-08T09:13:24.773Z,78.75
2018-07-08T09:14:24.796Z,78.75
2018-07-08T09:15:24.826Z,78.75
2018-07-08T09:16:24.849Z,78.75
2018-07-08T09:17:24.876Z,78.75
2018-07-08T09:18:24.920Z,78.75
2018-07-08T09:19:24.935Z,78.75
2018-07-08T09:20:24.956Z,78.75
2018-07-08T09:21:24.987Z,78.75
2018-07-08T09:22:25.008Z,78.75
2018-07-08T09:23:25.039Z,78.75
2018-07-08T09:24:25.064Z,78.75
2018-07-08T09:25:25.092Z,78.75
2018-07-08T09:26:25.125Z,78.75
2018-07-08T09:27:25.141Z,78.75
2018-07-08T09:28:25.171Z,78.75
2018-07-08T09:29:25.301Z,78.75
2018-07-08T09:30:25.223Z,78.75
2018-07-08T09:31:25.246Z,78.75
2018-07-08T09:32:25.269Z,78.75
2018-07-08T09:33:25.298Z,73.13
2018-07-08T09:34:25.331Z,73.13
2018-07-08T09:35:25.355Z,73.13
2018-07-08T09:36:25.382Z,73.13
2018-07-08T09:37:25.404Z,73.13
2018-07-08T09:38:25.436Z,73.13
2018-07-08T09:39:25.507Z,73.13
2018-07-08T09:40:25.484Z,73.13
2018-07-08T09:41:25.510Z,73.13
2018-07-08T09:42:25.534Z,73.13
2018-07-08T09:43:25.559Z,73.13
2018-07-08T09:44:25.595Z,73.13
2018-07-08T09:45:25.618Z,73.13
2018-07-08T09:46:25.641Z,73.13
2018-07-08T09:47:25.663Z,73.13
2018-07-08T09:48:25.691Z,73.13
2018-07-08T09:49:25.720Z,73.13
2018-07-08T09:50:25.748Z,73.13
2018-07-08T09:51:25.775Z,73.13
2018-07-08T09:52:25.793Z,73.13
2018-07-08T09:53:25.820Z,73.13
2018-07-08T09:54:25.850Z,73.13
2018-07-08T09:55:25.883Z,73.13
2018-07-08T09:56:25.905Z,73.13
2018-07-08T09:57:25.930Z,73.13
2018-07-08T09:58:25.953Z,73.13
2018-07-08T09:59:25.978Z,73.13
2018-07-08T10:00:26.016Z,73.13
2018-07-08T10:01:26.035Z,67.50
2018-07-08T10:02:26.057Z,67.50
2018-07-08T10:03:26.089Z,67.50
2018-07-08T10:04:26.147Z,67.50
2018-07-08T10:05:26.133Z,67.50
2018-07-08T10:06:26.167Z,67.50
2018-07-08T10:07:26.190Z,67.50
2018-07-08T10:08:26.214Z,67.50
2018-07-08T10:09:26.237Z,67.50
2018-07-08T10:10:26.269Z,67.50
2018-07-08T10:11:26.296Z,67.50
2018-07-08T10:12:26.319Z,67.50
2018-07-08T10:13:26.344Z,67.50
2018-07-08T10:14:26.367Z,67.50
2018-07-08T10:15:26.394Z,67.50
2018-07-08T10:16:26.456Z,67.50
2018-07-08T10:17:26.445Z,67.50
2018-07-08T10:18:26.475Z,67.50
2018-07-08T10:19:26.554Z,67.50
2018-07-08T10:20:26.531Z,67.50
2018-07-08T10:21:26.564Z,67.50
2018-07-08T10:22:26.578Z,67.50
2018-07-08T10:23:26.604Z,67.50
2018-07-08T10:24:26.630Z,67.50
2018-07-08T10:25:26.722Z,67.50
2018-07-08T10:26:26.679Z,67.50
2018-07-08T10:27:26.706Z,67.50
2018-07-08T10:28:26.732Z,67.50
2018-07-08T10:29:26.760Z,67.50
2018-07-08T10:30:26.850Z,67.50
2018-07-08T10:31:26.817Z,67.50
2018-07-08T10:32:26.837Z,67.50
2018-07-08T10:33:26.862Z,67.50
2018-07-08T10:34:26.892Z,67.50
2018-07-08T10:35:26.919Z,67.50
2018-07-08T10:36:26.973Z,67.50
2018-07-08T10:37:26.968Z,67.50
2018-07-08T10:38:26.990Z,67.50
2018-07-08T10:39:27.017Z,67.50
2018-07-08T10:40:27.047Z,67.50
2018-07-08T10:41:27.076Z,67.50
2018-07-08T10:42:27.095Z,67.50
2018-07-08T10:43:27.142Z,67.50
2018-07-08T10:44:27.146Z,67.50
2018-07-08T10:45:27.173Z,67.50
2018-07-08T10:46:27.200Z,67.50
2018-07-08T10:47:27.227Z,67.50
2018-07-08T10:48:27.248Z,67.50
2018-07-08T10:49:27.274Z,67.50
2018-07-08T10:50:27.305Z,67.50
2018-07-08T10:51:27.337Z,67.50
2018-07-08T10:52:27.358Z,67.50
2018-07-08T10:53:27.384Z,67.50
2018-07-08T10:54:27.407Z,67.50
2018-07-08T10:55:27.507Z,67.50
2018-07-08T10:56:27.458Z,67.50
2018-07-08T10:57:27.485Z,67.50
2018-07-08T10:58:27.506Z,67.50
2018-07-08T10:59:27.532Z,61.88
2018-07-08T11:00:27.560Z,61.88
2018-07-08T11:01:27.589Z,61.88
2018-07-08T11:02:27.628Z,61.88
2018-07-08T11:03:27.638Z,61.88
2018-07-08T11:04:27.663Z,61.88
2018-07-08T11:05:27.688Z,61.88
2018-07-08T11:06:27.722Z,61.88
2018-07-08T11:07:27.748Z,61.88
2018-07-08T11:08:27.770Z,61.88
2018-07-08T11:09:27.795Z,61.88
2018-07-08T11:10:27.823Z,61.88
2018-07-08T11:11:27.842Z,61.88
2018-07-08T11:12:27.874Z,61.88
2018-07-08T11:13:27.902Z,61.88
2018-07-08T11:14:27.924Z,61.88
2018-07-08T11:15:27.951Z,61.88
2018-07-08T11:16:27.972Z,61.88
2018-07-08T11:17:27.996Z,61.88
2018-07-08T11:18:28.028Z,61.88
2018-07-08T11:19:28.054Z,61.88
2018-07-08T11:20:28.138Z,61.88
2018-07-08T11:21:28.139Z,61.88
2018-07-08T11:22:28.131Z,61.88
2018-07-08T11:23:28.159Z,61.88
2018-07-08T11:24:28.181Z,61.88
2018-07-08T11:25:28.206Z,61.88
2018-07-08T11:26:28.232Z,61.88
2018-07-08T11:27:28.256Z,61.88
2018-07-08T11:28:28.324Z,61.88
2018-07-08T11:29:28.312Z,61.88
2018-07-08T11:30:28.335Z,61.88
2018-07-08T11:31:28.361Z,61.88
2018-07-08T11:32:28.382Z,61.88
2018-07-08T11:33:28.408Z,61.88
2018-07-08T11:34:28.439Z,61.88
2018-07-08T11:35:28.466Z,61.88
2018-07-08T11:36:28.485Z,61.88
2018-07-08T11:37:28.512Z,61.88
2018-07-08T11:38:28.541Z,61.88
2018-07-08T11:39:28.571Z,61.88
2018-07-08T11:40:28.595Z,61.88
2018-07-08T11:41:28.622Z,61.88
2018-07-08T11:42:28.643Z,61.88
2018-07-08T11:43:28.670Z,61.88
2018-07-08T11:44:28.701Z,61.88
2018-07-08T11:45:28.723Z,61.88
2018-07-08T11:46:28.744Z,61.88
2018-07-08T11:47:28.770Z,61.88
2018-07-08T11:48:28.797Z,61.88
2018-07-08T11:49:28.824Z,61.88
2018-07-08T11:50:28.854Z,61.88
2018-07-08T11:51:28.879Z,61.88
2018-07-08T11:52:28.900Z,61.88
2018-07-08T11:53:28.928Z,61.88
2018-07-08T11:54:28.955Z,61.88
2018-07-08T11:55:29.035Z,61.88
2018-07-08T11:56:29.006Z,61.88
2018-07-08T11:57:29.031Z,61.88
2018-07-08T11:58:29.055Z,61.88
2018-07-08T11:59:29.080Z,61.88
2018-07-08T12:00:29.120Z,61.88
2018-07-08T12:01:29.139Z,61.88
2018-07-08T12:02:29.160Z,61.88
2018-07-08T12:03:29.190Z,61.88
2018-07-08T12:04:29.207Z,61.88
2018-07-08T12:05:29.236Z,61.88
2018-07-08T12:06:29.344Z,61.88
2018-07-08T12:07:29.290Z,61.88
2018-07-08T12:08:29.309Z,61.88
2018-07-08T12:09:29.338Z,61.88
2018-07-08T12:10:29.368Z,61.88
2018-07-08T12:11:29.397Z,61.88
2018-07-08T12:12:29.423Z,61.88
2018-07-08T12:13:29.446Z,61.88
2018-07-08T12:14:29.525Z,61.88
2018-07-08T12:15:29.494Z,61.88
2018-07-08T12:16:29.521Z,61.88
2018-07-08T12:17:29.547Z,61.88
2018-07-08T12:18:29.569Z,61.88
2018-07-08T12:19:29.598Z,61.88
2018-07-08T12:20:29.624Z,61.88
2018-07-08T12:21:29.653Z,61.88
2018-07-08T12:22:29.681Z,61.88
2018-07-08T12:23:29.704Z,61.88
2018-07-08T12:24:29.731Z,61.88
2018-07-08T12:25:29.757Z,61.88
2018-07-08T12:26:29.777Z,61.88
2018-07-08T12:27:29.826Z,61.88
2018-07-08T12:28:29.827Z,61.88
2018-07-08T12:29:29.849Z,61.88
2018-07-08T12:30:29.883Z,61.88
2018-07-08T12:31:29.908Z,61.88
2018-07-08T12:32:29.931Z,61.88
2018-07-08T12:33:29.957Z,61.88
2018-07-08T12:34:29.989Z,61.88
2018-07-08T12:35:30.013Z,61.88
2018-07-08T12:36:30.036Z,61.88
2018-07-08T12:37:30.063Z,61.88
2018-07-08T12:38:30.085Z,61.88
2018-07-08T12:39:30.126Z,61.88
2018-07-08T12:40:30.138Z,61.88
2018-07-08T12:41:30.168Z,61.88
2018-07-08T12:42:30.192Z,61.88
2018-07-08T12:43:30.214Z,61.88
2018-07-08T12:44:30.279Z,61.88
2018-07-08T12:45:30.267Z,61.88
2018-07-08T12:46:30.298Z,61.88
2018-07-08T12:47:30.323Z,61.88
2018-07-08T12:48:30.343Z,61.88
2018-07-08T12:49:30.366Z,61.88
2018-07-08T12:50:30.398Z,61.88